WetterOnline ( http://www.wetteronline.de )

Wetter aktuell Trier

Aktuelles Wetter: Trier/Petrisberg (273m)

6-stündlich | Neueste Meldungen
Ortszeit Temperatur Wetter
Mo, 22.10. 8:00 3.5° C wolkenlos
Mo, 22.10. 2:00 5.8° C fast wolkenlos
So, 21.10. 20:00 11.3° C wolkig
So, 21.10. 14:00 14.0° C wolkenlos
So, 21.10. 8:00 2.7° C fast wolkenlos
So, 21.10. 2:00 6.2° C wolkenlos
Sa, 20.10. 20:00 10.8° C wolkig
Sa, 20.10. 14:00 14.4° C wolkig
Ortszeit Temperatur Wetter
Mo, 22.10. 12:00 10.7° C bewölkt
Mo, 22.10. 11:50 10.7° C bewölkt
Mo, 22.10. 11:40 9.9° C bewölkt
Mo, 22.10. 11:30 8.5° C bewölkt
Mo, 22.10. 11:20 8.5° C bewölkt
Mo, 22.10. 11:10 8.6° C bewölkt
Mo, 22.10. 11:00 7.6° C bedeckt
Mo, 22.10. 10:30 7.9° C bewölkt
Mo, 22.10. 10:00 7.0° C leicht bewölkt
Mo, 22.10. 9:30 4.8° C wolkenlos
Mo, 22.10. 9:00 3.7° C wolkenlos
Ortszeit Relative Feuchte Sichtweite
Mo, 22.10. 8:00 94% 30 km
Mo, 22.10. 2:00 85% 65 km
So, 21.10. 20:00 62% 70 km
So, 21.10. 14:00 55% 27 km
So, 21.10. 8:00 96% 5.0 km
So, 21.10. 2:00 92% 13 km
Sa, 20.10. 20:00 80% 30 km
Sa, 20.10. 14:00 63% 30 km
Ortszeit Relative Feuchte Sichtweite
Mo, 22.10. 12:00 67% 50 km
Mo, 22.10. 11:50 67% -
Mo, 22.10. 11:40 70% -
Mo, 22.10. 11:30 75% 45 km
Mo, 22.10. 11:20 75% -
Mo, 22.10. 11:10 75% -
Mo, 22.10. 11:00 78% 45 km
Mo, 22.10. 10:30 77% 40 km
Mo, 22.10. 10:00 79% 35 km
Mo, 22.10. 9:30 87% 30 km
Mo, 22.10. 9:00 94% 20 km
Ortszeit Niederschlagsmenge Niederschlagsart
Mo, 22.10. 8:00 0.0 l/m2 in 12 Std. -
Mo, 22.10. 2:00 0.0 l/m2 in 6 Std. -
So, 21.10. 20:00 0.0 l/m2 in 12 Std. -
So, 21.10. 14:00 0.0 l/m2 in 6 Std. -
So, 21.10. 8:00 0.0 l/m2 in 12 Std. -
So, 21.10. 2:00 0.0 l/m2 in 6 Std. -
Sa, 20.10. 20:00 0.0 l/m2 in 12 Std. -
Sa, 20.10. 14:00 0.0 l/m2 in 6 Std. -
Ortszeit Niederschlagsmenge Niederschlagsart
Mo, 22.10. 12:00 0.0 l/m2 in 1 Std. -
Mo, 22.10. 11:50 keine Meldung -
Mo, 22.10. 11:40 keine Meldung -
Mo, 22.10. 11:30 0.0 l/m2 in 1 Std. -
Mo, 22.10. 11:20 keine Meldung -
Mo, 22.10. 11:10 keine Meldung -
Mo, 22.10. 11:00 0.0 l/m2 in 1 Std. -
Mo, 22.10. 10:30 0.0 l/m2 in 1 Std. -
Mo, 22.10. 10:00 0.0 l/m2 in 1 Std. -
Mo, 22.10. 9:30 0.0 l/m2 in 1 Std. -
Mo, 22.10. 9:00 0.0 l/m2 in 1 Std. -
Ortszeit Stärke Spitze Richtung
km/h Bft. km/h Grad Sektor
Mo, 22.10. 8:00 4 1 18 80° O
Mo, 22.10. 2:00 9 2 20 20° N
So, 21.10. 20:00 14 3 25 50° NO
So, 21.10. 14:00 11 2 22 20° N
So, 21.10. 8:00 7 2 18 30° NO
So, 21.10. 2:00 11 2 28 10° N
Sa, 20.10. 20:00 11 2 22 30° NO
Sa, 20.10. 14:00 7 2 25 20° N
Ortszeit Stärke Spitze Richtung
km/h Bft. km/h Grad Sektor
Mo, 22.10. 12:00 4 1 11 10° N
Mo, 22.10. 11:50 4 1 - 10° N
Mo, 22.10. 11:40 4 1 - 60° NO
Mo, 22.10. 11:30 4 1 7 40° NO
Mo, 22.10. 11:20 4 1 - 40° NO
Mo, 22.10. 11:10 4 1 - 50° NO
Mo, 22.10. 11:00 4 1 11 20° N
Mo, 22.10. 10:30 6 1 7 20° N
Mo, 22.10. 10:00 7 2 14 50° NO
Mo, 22.10. 9:30 7 2 14 30° NO
Mo, 22.10. 9:00 7 2 14 20° N
Ortszeit Untergrenze Bedeckung Gattung
total tief tief mittel hoch
Mo, 22.10. 8:00 - 0/8 0/8 - - -
Mo, 22.10. 2:00 9000 m 1/8 0/8 - - -
So, 21.10. 20:00 10500 m 7/8 0/8 - - -
So, 21.10. 14:00 - 0/8 0/8 - - -
So, 21.10. 8:00 660 m 1/8 1/8 - - -
So, 21.10. 2:00 - 0/8 0/8 - - -
Sa, 20.10. 20:00 8400 m 8/8 0/8 - - -
Sa, 20.10. 14:00 6600 m 8/8 8/8 - - -
Ortszeit Bedeckungsgrad in Achtel und Wolkenuntergrenze
Mo, 22.10. 12:00 7(900m) 7(1500m) 8(3300m)
Mo, 22.10. 11:50 7(900m) 7(1500m) 8(3300m)
Mo, 22.10. 11:40 6(930m) 7(1500m) 8(3300m)
Mo, 22.10. 11:30 5(870m) 6(1800m) 7(3300m)
Mo, 22.10. 11:20 5(870m) 6(1800m) 7(3300m)
Mo, 22.10. 11:10 6(870m) 7(1260m) 8(3300m)
Mo, 22.10. 11:00 6(900m) 7(1290m) 8(1800m)
Mo, 22.10. 10:30 3(1050m) 7(1470m)
Mo, 22.10. 10:00 4(1230m)
Mo, 22.10. 9:30 keine Wolken
Mo, 22.10. 9:00 keine Wolken
Ortszeit Luftdruck NN (hPa) Tendenz (hPa in 3 Std.)
Mo, 22.10. 8:00 1029 + 0,8
Mo, 22.10. 2:00 1028 - 0,1
So, 21.10. 20:00 1027 - 0,2
So, 21.10. 14:00 1028 - 1,5
So, 21.10. 8:00 1030 - 0,5
So, 21.10. 2:00 1031 - 0,2
Sa, 20.10. 20:00 1030 + 0,9
Sa, 20.10. 14:00 1030 + 0,1
Ortszeit Luftdruck NN (hPa) Tendenz (hPa in 3 Std.)
Mo, 22.10. 12:00 1030 + 1,4
Mo, 22.10. 11:50 1030 keine Meldung
Mo, 22.10. 11:40 1030 keine Meldung
Mo, 22.10. 11:30 1031 + 1,7
Mo, 22.10. 11:20 1031 keine Meldung
Mo, 22.10. 11:10 1030 keine Meldung
Mo, 22.10. 11:00 1031 + 1,9
Mo, 22.10. 10:30 1030 + 1,9
Mo, 22.10. 10:00 1030 + 1,5
Mo, 22.10. 9:30 1030 + 1,5
Mo, 22.10. 9:00 1030 + 1,2
Ortszeit Schneehöhe (cm)
Mo, 22.10. 8:00 0
Mo, 22.10. 2:00 0
So, 21.10. 20:00 0
So, 21.10. 14:00 0
So, 21.10. 8:00 0
So, 21.10. 2:00 0
Sa, 20.10. 20:00 0
Sa, 20.10. 14:00 0
Ortszeit Schneehöhe (cm)
Mo, 22.10. 12:00 0
Mo, 22.10. 11:50 0
Mo, 22.10. 11:40 0
Mo, 22.10. 11:30 0
Mo, 22.10. 11:20 0
Mo, 22.10. 11:10 0
Mo, 22.10. 11:00 0
Mo, 22.10. 10:30 0
Mo, 22.10. 10:00 0
Mo, 22.10. 9:30 0
Mo, 22.10. 9:00 0
Link zu dieser Seite / Seite empfehlen

Das Wetter in ...